»·PEaware :: N390BD KTUS-KPRC

N390BD :: KTUS-KPRC

FLIGHT INFORMATION

Flight Status: Arrived
Operator: Privately registered:
United States
More flights under this callsign
Pilot: Brian D. (32503)
Aircraft: CESSNA 310
(C310)
More flights by this aircraft type
Origin: KTUS Tucson Intl
United States
Destination: KPRC Love
United States
More flights between these airports :: More routes between these airports
Route:
File this flight plan on PilotEdge
Remarks:
Altitude:
(Current/Filed)
6,500ft
Speed:
(Current/Filed)
0kts
Departed: 27-Jun-23 06:58 PM
Arrived: 27-Jun-23 07:59 PM
Distance/Time
Traveled:
169nm/1:01
Distance/Time
To Go:
Arrived

Flight Plot

Page will automatically refresh every two minutes.

Flight plan parsing failed; only flown route is shown


Map Options




Map Legend


Flown Route
Filed Route
Departure Airport
Arrival Airport
Navaid (VOR, NDB)
Fix

Horizontal Profiles

Position Reports

Time Latitude Longitude Heading Altitude Ground
Speed
27-Jun-23 18:56 32.161006 -110.984116 313 4125ft 108kts
27-Jun-23 18:57 32.184291 -111.006688 314 4835ft 107kts
27-Jun-23 18:58 32.207657 -111.029037 313 5481ft 106kts
27-Jun-23 18:59 32.231253 -111.051881 315 6182ft 112kts
27-Jun-23 19:00 32.258137 -111.077819 316 6444ft 143kts
27-Jun-23 19:01 32.292508 -111.110863 317 6418ft 169kts
27-Jun-23 19:02 32.329886 -111.146914 316 6451ft 179kts
27-Jun-23 19:03 32.373412 -111.177414 335 6429ft 184kts
27-Jun-23 19:04 32.421599 -111.198377 334 6441ft 184kts
27-Jun-23 19:05 32.468622 -111.218999 334 6445ft 181kts
27-Jun-23 19:06 32.517009 -111.240223 334 6455ft 184kts
27-Jun-23 19:07 32.565225 -111.261415 334 6445ft 184kts
27-Jun-23 19:08 32.613210 -111.282576 334 6443ft 184kts
27-Jun-23 19:09 32.661523 -111.303846 334 6415ft 184kts
27-Jun-23 19:10 32.709795 -111.325152 334 6401ft 187kts
27-Jun-23 19:11 32.758397 -111.346611 334 6369ft 185kts
27-Jun-23 19:12 32.806327 -111.367776 333 6352ft 182kts
27-Jun-23 19:13 32.854292 -111.389071 335 6321ft 185kts
27-Jun-23 19:14 32.901487 -111.409950 334 6479ft 178kts
27-Jun-23 19:15 32.948285 -111.430708 335 6490ft 179kts
27-Jun-23 19:16 32.995296 -111.451586 334 6499ft 182kts
27-Jun-23 19:17 33.043409 -111.472978 335 6511ft 186kts
27-Jun-23 19:18 33.095574 -111.476554 8 6531ft 194kts
27-Jun-23 19:19 33.149280 -111.463424 8 6557ft 199kts
27-Jun-23 19:20 33.203203 -111.450390 8 6550ft 195kts
27-Jun-23 19:21 33.256365 -111.437535 8 6555ft 194kts
27-Jun-23 19:22 33.309136 -111.424754 9 6552ft 192kts
27-Jun-23 19:23 33.361555 -111.412029 9 6554ft 192kts
27-Jun-23 19:24 33.414505 -111.399237 10 6592ft 198kts
27-Jun-23 19:25 33.467746 -111.386221 9 6545ft 193kts
27-Jun-23 19:26 33.521181 -111.383080 348 6528ft 192kts
27-Jun-23 19:27 33.573575 -111.396370 345 6557ft 196kts
27-Jun-23 19:28 33.627444 -111.410034 344 6552ft 196kts
27-Jun-23 19:29 33.680528 -111.423506 344 6563ft 195kts
27-Jun-23 19:30 33.734323 -111.437211 343 6584ft 198kts
27-Jun-23 19:31 33.765266 -111.485334 295 6571ft 183kts
27-Jun-23 19:32 33.791874 -111.536380 302 6551ft 177kts
27-Jun-23 19:33 33.821513 -111.584903 301 6578ft 186kts
27-Jun-23 19:34 33.852109 -111.635147 301 6580ft 186kts
27-Jun-23 19:35 33.882571 -111.685262 300 6566ft 182kts
27-Jun-23 19:36 33.912125 -111.733975 301 6596ft 181kts
27-Jun-23 19:37 33.940317 -111.780467 298 7143ft 152kts
27-Jun-23 19:38 33.961885 -111.816141 296 7882ft 120kts
27-Jun-23 19:39 33.981139 -111.848081 294 8394ft 119kts
27-Jun-23 19:40 34.003147 -111.884480 297 8498ft 152kts
27-Jun-23 19:41 34.030412 -111.929594 298 8516ft 180kts
27-Jun-23 19:42 34.060628 -111.979668 298 8496ft 185kts
27-Jun-23 19:43 34.090953 -112.030127 298 8520ft 186kts
27-Jun-23 19:44 34.121665 -112.081193 298 8531ft 190kts
27-Jun-23 19:45 34.152939 -112.132990 300 8513ft 191kts
27-Jun-23 19:46 34.199640 -112.166405 339 8526ft 204kts
27-Jun-23 19:47 34.254419 -112.180462 342 8529ft 196kts
27-Jun-23 19:48 34.308131 -112.194382 342 8501ft 200kts
27-Jun-23 19:49 34.364339 -112.208961 343 8089ft 212kts
27-Jun-23 19:50 34.422264 -112.223986 344 7784ft 211kts
27-Jun-23 19:51 34.472188 -112.253259 316 7596ft 191kts
27-Jun-23 19:52 34.514745 -112.292042 316 7458ft 192kts
27-Jun-23 19:53 34.557353 -112.330681 317 7025ft 189kts
27-Jun-23 19:54 34.598517 -112.368045 318 6632ft 178kts
27-Jun-23 19:55 34.637687 -112.399306 349 6140ft 164kts
27-Jun-23 19:56 34.673281 -112.389899 247 5654ft 116kts
27-Jun-23 19:57 34.655864 -112.417963 229 4997ft 47kts
27-Jun-23 19:58 34.653445 -112.418812 221 5004ft 8kts
27-Jun-23 19:59 34.649188 -112.423350 220 5024ft 7kts
27-Jun-23 20:00 34.646707 -112.424445 130 5024ft 0kts
27-Jun-23 20:01 34.646707 -112.424444 130 5024ft 0kts
27-Jun-23 20:02 34.646707 -112.424444 130 5024ft 0kts
27-Jun-23 20:03 34.646707 -112.424444 130 5024ft 0kts
27-Jun-23 20:04 34.646707 -112.424444 130 5024ft 0kts
27-Jun-23 20:05 34.646707 -112.424444 130 5024ft 0kts
27-Jun-23 20:06 34.646707 -112.424444 130 5024ft 0kts
27-Jun-23 20:07 34.646707 -112.424444 130 5024ft 0kts
27-Jun-23 20:08 34.646707 -112.424444 130 5024ft 0kts
27-Jun-23 20:09 34.646707 -112.424444 130 5024ft 0kts
27-Jun-23 20:10 34.646707 -112.424444 130 5024ft 0kts

Navigation Log

Ident Type
Flight plan parsing failed, navigation log unavailable